createdAt,value
2019-02-12T00:00:37.141Z,0.00
2019-02-12T00:01:37.130Z,0.00
2019-02-12T00:02:37.119Z,0.00
2019-02-12T00:03:37.112Z,0.00
2019-02-12T00:04:37.111Z,0.00
2019-02-12T00:05:37.102Z,0.00
2019-02-12T00:06:37.081Z,0.00
2019-02-12T00:07:37.087Z,0.00
2019-02-12T00:08:37.062Z,0.00
2019-02-12T00:09:37.054Z,0.00
2019-02-12T00:10:37.046Z,0.00
2019-02-12T00:11:37.543Z,0.00
2019-02-12T00:12:37.011Z,0.00
2019-02-12T00:13:37.011Z,0.00
2019-02-12T00:14:36.994Z,0.00
2019-02-12T00:15:36.977Z,0.00
2019-02-12T00:16:36.971Z,0.00
2019-02-12T00:17:37.009Z,0.00
2019-02-12T00:18:36.941Z,0.00
2019-02-12T00:19:36.929Z,0.00
2019-02-12T00:20:36.922Z,0.00
2019-02-12T00:21:36.926Z,0.00
2019-02-12T00:22:36.909Z,0.00
2019-02-12T00:23:36.900Z,0.00
2019-02-12T00:24:36.902Z,0.00
2019-02-12T00:25:36.882Z,0.00
2019-02-12T00:26:36.902Z,0.00
2019-02-12T00:27:36.852Z,0.00
2019-02-12T00:28:36.860Z,0.00
2019-02-12T00:29:36.905Z,0.00
2019-02-12T00:30:36.809Z,0.00
2019-02-12T00:31:36.883Z,0.00
2019-02-12T00:32:36.816Z,0.00
2019-02-12T00:33:36.806Z,0.00
2019-02-12T00:34:36.824Z,0.00
2019-02-12T00:35:36.760Z,0.00
2019-02-12T00:36:36.746Z,0.00
2019-02-12T00:37:36.791Z,0.00
2019-02-12T00:38:36.730Z,0.00
2019-02-12T00:39:36.708Z,0.00
2019-02-12T00:40:36.702Z,0.00
2019-02-12T00:41:36.710Z,0.00
2019-02-12T00:42:36.702Z,0.00
2019-02-12T00:43:36.695Z,0.00
2019-02-12T00:44:36.695Z,0.00
2019-02-12T00:45:36.665Z,0.00
2019-02-12T00:46:36.629Z,0.00
2019-02-12T00:47:36.641Z,0.00
2019-02-12T00:48:36.607Z,0.00
2019-02-12T00:49:36.622Z,0.00
2019-02-12T00:50:36.608Z,0.00
2019-02-12T00:51:36.588Z,0.00
2019-02-12T00:52:36.602Z,0.00
2019-02-12T00:53:36.614Z,0.00
2019-02-12T00:54:36.580Z,0.00
2019-02-12T00:55:36.530Z,0.00
2019-02-12T00:56:36.569Z,0.00
2019-02-12T00:57:36.519Z,0.00
2019-02-12T00:58:36.515Z,0.00
2019-02-12T00:59:36.531Z,0.00
2019-02-12T01:00:36.521Z,0.00
2019-02-12T01:01:36.502Z,0.00
2019-02-12T01:02:36.469Z,0.00
2019-02-12T01:03:36.543Z,0.00
2019-02-12T01:04:36.433Z,0.00
2019-02-12T01:05:36.486Z,0.00
2019-02-12T01:06:36.441Z,0.00
2019-02-12T01:07:36.487Z,0.00
2019-02-12T01:08:36.395Z,0.00
2019-02-12T01:09:36.403Z,0.00
2019-02-12T01:10:36.367Z,0.00
2019-02-12T01:11:36.371Z,0.00
2019-02-12T01:12:36.379Z,0.00
2019-02-12T01:13:36.342Z,0.00
2019-02-12T01:14:36.329Z,0.00
2019-02-12T01:15:36.343Z,0.00
2019-02-12T01:16:36.327Z,0.00
2019-02-12T01:17:36.292Z,0.00
2019-02-12T01:18:36.293Z,0.00
2019-02-12T01:19:36.269Z,0.00
2019-02-12T01:20:36.259Z,0.00
2019-02-12T01:21:36.268Z,0.00
2019-02-12T01:22:36.247Z,0.00
2019-02-12T01:23:36.222Z,0.00
2019-02-12T01:24:36.218Z,0.00
2019-02-12T01:25:36.197Z,0.00
2019-02-12T01:26:36.190Z,0.00
2019-02-12T01:27:36.201Z,0.00
2019-02-12T01:28:36.177Z,0.00
2019-02-12T01:29:36.156Z,0.00
2019-02-12T01:30:36.151Z,0.00
2019-02-12T01:31:36.137Z,0.00
2019-02-12T01:32:36.130Z,0.00
2019-02-12T01:33:36.129Z,0.00
2019-02-12T01:34:36.124Z,0.00
2019-02-12T01:35:36.113Z,0.00
2019-02-12T01:36:36.090Z,0.00
2019-02-12T01:37:36.080Z,0.00
2019-02-12T01:38:36.111Z,0.00
2019-02-12T01:39:36.049Z,0.00
2019-02-12T01:40:36.063Z,0.00
2019-02-12T01:41:36.043Z,0.00
2019-02-12T01:42:36.011Z,0.00
2019-02-12T01:43:36.002Z,0.00
2019-02-12T01:44:36.004Z,0.00
2019-02-12T01:45:36.007Z,0.00
2019-02-12T01:46:35.969Z,0.00
2019-02-12T01:47:35.963Z,0.00
2019-02-12T01:48:35.950Z,0.00
2019-02-12T01:49:35.936Z,0.00
2019-02-12T01:50:35.925Z,0.00
2019-02-12T01:51:35.926Z,0.00
2019-02-12T01:52:35.899Z,0.00
2019-02-12T01:53:35.889Z,0.00
2019-02-12T01:54:35.888Z,0.00
2019-02-12T01:55:35.873Z,0.00
2019-02-12T01:56:35.877Z,0.00
2019-02-12T01:57:35.951Z,0.00
2019-02-12T01:58:35.906Z,0.00
2019-02-12T01:59:35.831Z,0.00
2019-02-12T02:00:35.821Z,0.00
2019-02-12T02:01:35.804Z,0.00
2019-02-12T02:02:35.805Z,0.00
2019-02-12T02:03:35.805Z,0.00
2019-02-12T02:04:35.772Z,0.00
2019-02-12T02:05:35.757Z,0.00
2019-02-12T02:06:35.748Z,0.00
2019-02-12T02:07:35.752Z,0.00
2019-02-12T02:08:35.729Z,0.00
2019-02-12T02:09:35.726Z,0.00
2019-02-12T02:10:35.773Z,0.00
2019-02-12T02:11:35.690Z,0.00
2019-02-12T02:12:35.692Z,0.00
2019-02-12T02:13:35.690Z,0.00
2019-02-12T02:14:35.671Z,0.00
2019-02-12T02:15:35.645Z,0.00
2019-02-12T02:16:35.646Z,0.00
2019-02-12T02:17:35.659Z,0.00
2019-02-12T02:18:35.641Z,0.00
2019-02-12T02:19:35.600Z,0.00
2019-02-12T02:20:35.590Z,0.00
2019-02-12T02:21:43.709Z,0.00
2019-02-12T02:22:36.570Z,0.00
2019-02-12T02:23:35.573Z,0.00
2019-02-12T02:24:35.568Z,0.00
2019-02-12T02:25:35.566Z,0.00
2019-02-12T02:26:35.546Z,0.00
2019-02-12T02:27:35.519Z,0.00
2019-02-12T02:28:35.502Z,0.00
2019-02-12T02:29:35.516Z,0.00
2019-02-12T02:30:35.489Z,0.00
2019-02-12T02:31:35.470Z,0.00
2019-02-12T02:32:35.489Z,0.00
2019-02-12T02:33:35.454Z,0.00
2019-02-12T02:34:35.437Z,0.00
2019-02-12T02:35:35.434Z,0.00
2019-02-12T02:36:35.415Z,0.00
2019-02-12T02:37:35.406Z,0.00
2019-02-12T02:38:35.419Z,0.00
2019-02-12T02:39:35.392Z,0.00
2019-02-12T02:40:35.412Z,0.00
2019-02-12T02:41:35.365Z,0.00
2019-02-12T02:42:35.365Z,0.00
2019-02-12T02:43:35.335Z,0.00
2019-02-12T02:44:35.328Z,0.00
2019-02-12T02:45:35.334Z,0.00
2019-02-12T02:46:35.309Z,0.00
2019-02-12T02:47:35.323Z,0.00
2019-02-12T02:48:35.298Z,0.00
2019-02-12T02:49:35.292Z,0.00
2019-02-12T02:50:35.300Z,0.00
2019-02-12T02:51:35.269Z,0.00
2019-02-12T02:52:35.241Z,0.00
2019-02-12T02:53:35.250Z,0.00
2019-02-12T02:54:35.213Z,0.00
2019-02-12T02:55:35.206Z,0.00
2019-02-12T02:56:35.258Z,0.00
2019-02-12T02:57:35.186Z,0.00
2019-02-12T02:58:35.174Z,0.00
2019-02-12T02:59:35.162Z,0.00
2019-02-12T03:00:35.151Z,0.00
2019-02-12T03:01:35.149Z,0.00
2019-02-12T03:02:35.156Z,0.00
2019-02-12T03:03:35.126Z,0.00
2019-02-12T03:04:35.101Z,0.00
2019-02-12T03:05:35.106Z,0.00
2019-02-12T03:06:35.086Z,0.00
2019-02-12T03:07:35.084Z,0.00
2019-02-12T03:08:35.096Z,0.00
2019-02-12T03:09:35.052Z,0.00
2019-02-12T03:10:35.055Z,0.00
2019-02-12T03:11:35.038Z,0.00
2019-02-12T03:12:35.024Z,0.00
2019-02-12T03:13:35.027Z,0.00
2019-02-12T03:14:35.008Z,0.00
2019-02-12T03:15:35.001Z,0.00
2019-02-12T03:16:34.996Z,0.00
2019-02-12T03:17:34.963Z,0.00
2019-02-12T03:18:34.984Z,0.00
2019-02-12T03:19:34.938Z,0.00
2019-02-12T03:20:34.931Z,0.00
2019-02-12T03:21:34.944Z,0.00
2019-02-12T03:22:34.914Z,0.00
2019-02-12T03:23:34.909Z,0.00
2019-02-12T03:24:34.903Z,0.00
2019-02-12T03:25:34.870Z,0.00
2019-02-12T03:26:34.887Z,0.00
2019-02-12T03:27:34.869Z,0.00
2019-02-12T03:28:34.839Z,0.00
2019-02-12T03:29:34.969Z,0.00
2019-02-12T03:30:34.823Z,0.00
2019-02-12T03:31:34.814Z,0.00
2019-02-12T03:32:34.808Z,0.00
2019-02-12T03:33:34.801Z,0.00
2019-02-12T03:34:34.786Z,0.00
2019-02-12T03:35:34.770Z,0.00
2019-02-12T03:36:34.747Z,0.00
2019-02-12T03:37:34.744Z,0.00
2019-02-12T03:38:34.734Z,0.00
2019-02-12T03:39:34.717Z,0.00
2019-02-12T03:40:34.738Z,0.00
2019-02-12T03:41:34.711Z,0.00
2019-02-12T03:42:34.684Z,0.00
2019-02-12T03:43:34.688Z,0.00
2019-02-12T03:44:34.667Z,0.00
2019-02-12T03:45:34.649Z,0.00
2019-02-12T03:46:34.643Z,0.00
2019-02-12T03:47:34.652Z,0.00
2019-02-12T03:48:34.627Z,0.00
2019-02-12T03:49:34.609Z,0.00
2019-02-12T03:50:34.602Z,0.00
2019-02-12T03:51:34.604Z,0.00
2019-02-12T03:52:35.561Z,0.00
2019-02-12T03:53:34.577Z,0.00
2019-02-12T03:54:34.571Z,0.00
2019-02-12T03:55:34.578Z,0.00
2019-02-12T03:56:34.526Z,0.00
2019-02-12T03:57:34.524Z,0.00
2019-02-12T03:58:34.508Z,0.00
2019-02-12T03:59:34.497Z,0.00
2019-02-12T04:00:34.493Z,0.00
2019-02-12T04:01:34.514Z,0.00
2019-02-12T04:02:34.481Z,0.00
2019-02-12T04:03:36.537Z,0.00
2019-02-12T04:04:34.440Z,0.00
2019-02-12T04:05:34.430Z,0.00
2019-02-12T04:06:34.420Z,0.00
2019-02-12T04:07:34.442Z,0.00
2019-02-12T04:08:34.407Z,0.00
2019-02-12T04:09:34.390Z,0.00
2019-02-12T04:10:34.372Z,0.00
2019-02-12T04:11:34.403Z,0.00
2019-02-12T04:12:34.348Z,0.00
2019-02-12T04:13:34.374Z,0.00
2019-02-12T04:14:34.329Z,0.00
2019-02-12T04:15:34.319Z,0.00
2019-02-12T04:16:34.310Z,0.00
2019-02-12T04:17:34.327Z,0.00
2019-02-12T04:18:34.284Z,0.00
2019-02-12T04:19:34.274Z,0.00
2019-02-12T04:20:34.265Z,0.00
2019-02-12T04:21:34.251Z,0.00
2019-02-12T04:22:34.240Z,0.00
2019-02-12T04:23:34.232Z,0.00
2019-02-12T04:24:34.253Z,0.00
2019-02-12T04:25:34.211Z,0.00
2019-02-12T04:26:34.201Z,0.00
2019-02-12T04:27:34.180Z,0.00
2019-02-12T04:28:34.203Z,0.00
2019-02-12T04:29:34.166Z,0.00
2019-02-12T04:30:34.200Z,0.00
2019-02-12T04:31:34.161Z,0.00
2019-02-12T04:32:34.131Z,0.00
2019-02-12T04:33:34.126Z,0.00
2019-02-12T04:34:34.127Z,0.00
2019-02-12T04:35:34.125Z,0.00
2019-02-12T04:36:34.145Z,0.00
2019-02-12T04:37:34.072Z,0.00
2019-02-12T04:38:34.071Z,0.00
2019-02-12T04:39:34.057Z,0.00
2019-02-12T04:40:34.042Z,0.00
2019-02-12T04:41:34.064Z,0.00
2019-02-12T04:42:34.022Z,0.00
2019-02-12T04:43:34.009Z,0.00
2019-02-12T04:44:34.024Z,0.00
2019-02-12T04:45:33.985Z,0.00
2019-02-12T04:46:34.019Z,0.00
2019-02-12T04:47:33.987Z,0.00
2019-02-12T04:48:33.992Z,0.00
2019-02-12T04:49:33.988Z,0.00
2019-02-12T04:50:33.946Z,0.00
2019-02-12T04:51:33.931Z,0.00
2019-02-12T04:52:33.914Z,0.00
2019-02-12T04:53:34.011Z,0.00
2019-02-12T04:54:33.899Z,0.00
2019-02-12T04:55:33.991Z,0.00
2019-02-12T04:56:34.018Z,0.00
2019-02-12T04:57:33.937Z,0.00
2019-02-12T04:58:33.965Z,0.00
2019-02-12T04:59:33.853Z,0.00
2019-02-12T05:00:33.817Z,0.00
2019-02-12T05:01:33.853Z,0.00
2019-02-12T05:02:33.806Z,0.00
2019-02-12T05:03:33.804Z,0.00
2019-02-12T05:04:33.843Z,0.00
2019-02-12T05:05:33.771Z,0.00
2019-02-12T05:06:33.773Z,0.00
2019-02-12T05:07:33.746Z,0.00
2019-02-12T05:08:33.733Z,0.00
2019-02-12T05:09:33.749Z,0.00
2019-02-12T05:10:33.739Z,0.00
2019-02-12T05:11:33.699Z,0.00
2019-02-12T05:12:33.686Z,0.00
2019-02-12T05:13:33.680Z,0.00
2019-02-12T05:14:33.739Z,0.00
2019-02-12T05:15:33.655Z,0.00
2019-02-12T05:16:33.657Z,0.00
2019-02-12T05:17:33.668Z,0.00
2019-02-12T05:18:33.621Z,0.00
2019-02-12T05:19:33.619Z,0.00
2019-02-12T05:20:33.610Z,0.00
2019-02-12T05:21:33.588Z,0.00
2019-02-12T05:22:43.087Z,0.00
2019-02-12T05:23:34.568Z,0.00
2019-02-12T05:24:33.575Z,0.00
2019-02-12T05:25:33.568Z,0.00
2019-02-12T05:26:33.533Z,0.00
2019-02-12T05:27:33.520Z,0.00
2019-02-12T05:28:33.510Z,0.00
2019-02-12T05:29:33.496Z,0.00
2019-02-12T05:30:33.495Z,0.00
2019-02-12T05:31:33.484Z,0.00
2019-02-12T05:32:33.470Z,0.00
2019-02-12T05:33:33.454Z,0.00
2019-02-12T05:34:33.443Z,0.00
2019-02-12T05:35:33.438Z,0.00
2019-02-12T05:36:33.440Z,0.00
2019-02-12T05:37:33.411Z,0.00
2019-02-12T05:38:33.426Z,0.00
2019-02-12T05:39:33.390Z,0.00
2019-02-12T05:40:33.400Z,0.00
2019-02-12T05:41:33.394Z,0.00
2019-02-12T05:42:33.360Z,0.00
2019-02-12T05:43:33.345Z,0.00
2019-02-12T05:44:33.329Z,0.00
2019-02-12T05:45:33.321Z,0.00
2019-02-12T05:46:33.331Z,0.00
2019-02-12T05:47:33.344Z,0.00
2019-02-12T05:48:33.316Z,0.00
2019-02-12T05:49:33.290Z,0.00
2019-02-12T05:50:33.270Z,0.00
2019-02-12T05:51:33.253Z,0.00
2019-02-12T05:52:33.270Z,0.00
2019-02-12T05:53:33.245Z,0.00
2019-02-12T05:54:33.221Z,0.00
2019-02-12T05:55:33.212Z,0.00
2019-02-12T05:56:33.204Z,0.00
2019-02-12T05:57:33.186Z,0.00
2019-02-12T05:58:33.200Z,0.00
2019-02-12T05:59:33.199Z,0.00
2019-02-12T06:00:33.210Z,0.00
2019-02-12T06:01:33.144Z,0.00
2019-02-12T06:02:33.164Z,0.00
2019-02-12T06:03:33.160Z,0.00
2019-02-12T06:04:34.079Z,0.00
2019-02-12T06:05:33.106Z,0.00
2019-02-12T06:06:33.133Z,0.00
2019-02-12T06:07:33.101Z,0.00
2019-02-12T06:08:33.086Z,0.00
2019-02-12T06:09:33.061Z,0.00
2019-02-12T06:10:33.111Z,0.00
2019-02-12T06:11:33.036Z,0.00
2019-02-12T06:12:33.040Z,0.00
2019-02-12T06:13:33.039Z,0.00
2019-02-12T06:14:33.045Z,0.00
2019-02-12T06:15:32.994Z,0.00
2019-02-12T06:16:32.977Z,0.00
2019-02-12T06:17:32.983Z,0.00
2019-02-12T06:18:32.961Z,0.00
2019-02-12T06:19:32.946Z,0.00
2019-02-12T06:20:32.952Z,0.00
2019-02-12T06:21:32.965Z,0.00
2019-02-12T06:22:32.909Z,0.00
2019-02-12T06:23:32.912Z,0.00
2019-02-12T06:24:32.892Z,0.00
2019-02-12T06:25:32.897Z,0.00
2019-02-12T06:26:32.869Z,0.00
2019-02-12T06:27:32.876Z,0.00
2019-02-12T06:28:32.882Z,0.00
2019-02-12T06:29:32.837Z,0.00
2019-02-12T06:30:32.828Z,0.00
2019-02-12T06:31:32.815Z,0.00
2019-02-12T06:32:32.802Z,0.00
2019-02-12T06:33:32.792Z,0.00
2019-02-12T06:34:32.776Z,0.00
2019-02-12T06:35:32.764Z,0.00
2019-02-12T06:36:32.779Z,0.00
2019-02-12T06:37:32.796Z,0.00
2019-02-12T06:38:32.739Z,0.00
2019-02-12T06:39:32.723Z,0.00
2019-02-12T06:40:32.716Z,0.00
2019-02-12T06:41:32.704Z,0.00
2019-02-12T06:42:32.705Z,0.00
2019-02-12T06:43:32.713Z,0.00
2019-02-12T06:44:32.690Z,0.00
2019-02-12T06:45:32.657Z,0.00
2019-02-12T06:46:32.659Z,0.00
2019-02-12T06:47:32.655Z,0.00
2019-02-12T06:48:32.622Z,0.00
2019-02-12T06:49:32.612Z,0.00
2019-02-12T06:50:32.656Z,0.00
2019-02-12T06:51:32.591Z,0.00
2019-02-12T06:52:32.578Z,0.00
2019-02-12T06:53:32.581Z,0.00
2019-02-12T06:54:32.565Z,0.00
2019-02-12T06:55:32.544Z,0.00
2019-02-12T06:56:32.536Z,0.00
2019-02-12T06:57:32.539Z,0.00
2019-02-12T06:58:32.531Z,0.00
2019-02-12T06:59:32.526Z,0.00
2019-02-12T07:00:32.516Z,0.00
2019-02-12T07:01:32.479Z,0.00
2019-02-12T07:02:32.467Z,0.00
2019-02-12T07:03:32.458Z,0.00
2019-02-12T07:04:32.467Z,0.00
2019-02-12T07:05:32.435Z,0.00
2019-02-12T07:06:32.449Z,0.00
2019-02-12T07:07:32.414Z,0.00
2019-02-12T07:08:32.404Z,0.00
2019-02-12T07:09:32.419Z,0.00
2019-02-12T07:10:32.396Z,0.00
2019-02-12T07:11:32.386Z,0.00
2019-02-12T07:12:32.357Z,0.00
2019-02-12T07:13:32.370Z,0.00
2019-02-12T07:14:32.340Z,0.00
2019-02-12T07:15:32.339Z,0.00
2019-02-12T07:16:32.321Z,0.00
2019-02-12T07:17:32.314Z,0.00
2019-02-12T07:18:32.288Z,0.00
2019-02-12T07:19:32.293Z,0.00
2019-02-12T07:20:32.290Z,5.62
2019-02-12T07:21:32.257Z,0.00
2019-02-12T07:22:32.265Z,5.62
2019-02-12T07:23:32.289Z,5.62
2019-02-12T07:24:32.283Z,5.62
2019-02-12T07:25:32.243Z,5.62
2019-02-12T07:26:32.246Z,5.62
2019-02-12T07:27:32.198Z,5.62
2019-02-12T07:28:32.193Z,5.62
2019-02-12T07:29:32.177Z,5.62
2019-02-12T07:30:32.168Z,5.62
2019-02-12T07:31:34.569Z,5.62
2019-02-12T07:32:32.138Z,5.62
2019-02-12T07:33:32.145Z,5.62
2019-02-12T07:34:32.121Z,5.62
2019-02-12T07:35:32.107Z,5.62
2019-02-12T07:36:32.094Z,5.62
2019-02-12T07:37:32.094Z,5.62
2019-02-12T07:38:32.075Z,11.25
2019-02-12T07:39:32.085Z,11.25
2019-02-12T07:40:32.085Z,11.25
2019-02-12T07:41:32.040Z,11.25
2019-02-12T07:42:32.039Z,11.25
2019-02-12T07:43:32.024Z,11.25
2019-02-12T07:44:32.009Z,11.25
2019-02-12T07:45:32.039Z,11.25
2019-02-12T07:46:32.010Z,11.25
2019-02-12T07:47:31.976Z,11.25
2019-02-12T07:48:31.983Z,11.25
2019-02-12T07:49:31.978Z,11.25
2019-02-12T07:50:31.955Z,11.25
2019-02-12T07:51:31.937Z,11.25
2019-02-12T07:52:31.927Z,11.25
2019-02-12T07:53:31.906Z,11.25
2019-02-12T07:54:31.899Z,11.25
2019-02-12T07:55:31.901Z,11.25
2019-02-12T07:56:31.940Z,11.25
2019-02-12T07:57:31.864Z,11.25
2019-02-12T07:58:31.868Z,11.25
2019-02-12T07:59:31.841Z,11.25
2019-02-12T08:00:31.836Z,11.25
2019-02-12T08:01:31.818Z,11.25
2019-02-12T08:02:33.749Z,11.25
2019-02-12T08:03:31.818Z,5.62
2019-02-12T08:04:31.805Z,5.62
2019-02-12T08:05:31.791Z,5.62
2019-02-12T08:06:31.781Z,5.62
2019-02-12T08:07:31.781Z,5.62
2019-02-12T08:08:31.740Z,5.62
2019-02-12T08:09:31.732Z,5.62
2019-02-12T08:10:31.724Z,5.62
2019-02-12T08:11:31.717Z,5.62
2019-02-12T08:12:31.699Z,5.62
2019-02-12T08:13:31.693Z,5.62
2019-02-12T08:14:31.688Z,11.25
2019-02-12T08:15:31.690Z,11.25
2019-02-12T08:16:31.734Z,11.25
2019-02-12T08:17:31.654Z,11.25
2019-02-12T08:18:31.670Z,11.25
2019-02-12T08:19:31.629Z,11.25
2019-02-12T08:20:31.636Z,11.25
2019-02-12T08:21:31.597Z,16.88
2019-02-12T08:22:31.613Z,16.88
2019-02-12T08:23:40.862Z,16.88
2019-02-12T08:24:32.576Z,16.88
2019-02-12T08:25:31.577Z,16.88
2019-02-12T08:26:31.554Z,16.88
2019-02-12T08:27:31.572Z,16.88
2019-02-12T08:28:31.547Z,16.88
2019-02-12T08:29:31.516Z,16.88
2019-02-12T08:30:31.533Z,16.88
2019-02-12T08:31:31.547Z,16.88
2019-02-12T08:32:31.491Z,16.88
2019-02-12T08:33:31.475Z,16.88
2019-02-12T08:34:31.502Z,16.88
2019-02-12T08:35:31.445Z,16.88
2019-02-12T08:36:31.495Z,22.50
2019-02-12T08:37:32.027Z,22.50
2019-02-12T08:38:31.442Z,22.50
2019-02-12T08:39:31.439Z,22.50
2019-02-12T08:40:31.417Z,22.50
2019-02-12T08:41:31.420Z,28.12
2019-02-12T08:42:31.394Z,28.12
2019-02-12T08:43:31.420Z,22.50
2019-02-12T08:44:31.338Z,22.50
2019-02-12T08:45:31.333Z,22.50
2019-02-12T08:46:31.329Z,22.50
2019-02-12T08:47:31.380Z,22.50
2019-02-12T08:48:31.323Z,28.12
2019-02-12T08:49:31.300Z,22.50
2019-02-12T08:50:31.286Z,22.50
2019-02-12T08:51:31.290Z,28.12
2019-02-12T08:52:31.265Z,28.12
2019-02-12T08:53:31.322Z,22.50
2019-02-12T08:54:31.311Z,22.50
2019-02-12T08:55:31.256Z,22.50
2019-02-12T08:56:31.308Z,22.50
2019-02-12T08:57:31.195Z,22.50
2019-02-12T08:58:31.227Z,28.12
2019-02-12T08:59:31.197Z,28.12
2019-02-12T09:00:31.206Z,28.12
2019-02-12T09:01:31.161Z,28.12
2019-02-12T09:02:31.160Z,28.12
2019-02-12T09:03:31.129Z,28.12
2019-02-12T09:04:31.137Z,22.50
2019-02-12T09:05:31.116Z,22.50
2019-02-12T09:06:31.108Z,22.50
2019-02-12T09:07:31.149Z,22.50
2019-02-12T09:08:31.088Z,28.12
2019-02-12T09:09:32.290Z,28.12
2019-02-12T09:10:31.068Z,28.12
2019-02-12T09:11:31.058Z,28.12
2019-02-12T09:12:31.051Z,33.75
2019-02-12T09:13:31.035Z,33.75
2019-02-12T09:14:31.041Z,33.75
2019-02-12T09:15:31.019Z,33.75
2019-02-12T09:16:31.001Z,33.75
2019-02-12T09:17:30.978Z,33.75
2019-02-12T09:18:31.052Z,33.75
2019-02-12T09:19:30.965Z,33.75
2019-02-12T09:20:31.026Z,33.75
2019-02-12T09:21:30.947Z,28.12
2019-02-12T09:22:30.934Z,28.12
2019-02-12T09:23:30.980Z,28.12
2019-02-12T09:24:30.927Z,28.12
2019-02-12T09:25:30.920Z,28.12
2019-02-12T09:26:30.889Z,28.12
2019-02-12T09:27:30.898Z,28.12
2019-02-12T09:28:30.896Z,28.12
2019-02-12T09:29:30.856Z,28.12
2019-02-12T09:30:30.908Z,28.12
2019-02-12T09:31:30.820Z,28.12
2019-02-12T09:32:30.870Z,28.12
2019-02-12T09:33:30.831Z,33.75
2019-02-12T09:34:30.811Z,33.75
2019-02-12T09:35:30.780Z,33.75
2019-02-12T09:36:30.779Z,33.75
2019-02-12T09:37:30.790Z,33.75
2019-02-12T09:38:30.744Z,28.12
2019-02-12T09:39:30.793Z,28.12
2019-02-12T09:40:30.732Z,33.75
2019-02-12T09:41:30.729Z,33.75
2019-02-12T09:42:30.744Z,33.75
2019-02-12T09:43:30.724Z,33.75
2019-02-12T09:44:30.675Z,33.75
2019-02-12T09:45:30.696Z,33.75
2019-02-12T09:46:30.738Z,33.75
2019-02-12T09:47:30.660Z,33.75
2019-02-12T09:48:30.647Z,33.75
2019-02-12T09:49:30.659Z,33.75
2019-02-12T09:50:30.619Z,28.12
2019-02-12T09:51:30.613Z,28.12
2019-02-12T09:52:30.605Z,28.12
2019-02-12T09:53:30.578Z,22.50
2019-02-12T09:54:30.591Z,22.50
2019-02-12T09:55:30.553Z,22.50
2019-02-12T09:56:30.540Z,22.50
2019-02-12T09:57:30.533Z,22.50
2019-02-12T09:58:30.561Z,22.50
2019-02-12T09:59:30.519Z,28.12
2019-02-12T10:00:30.507Z,28.12
2019-02-12T10:01:30.508Z,28.12
2019-02-12T10:02:30.480Z,28.12
2019-02-12T10:03:30.468Z,28.12
2019-02-12T10:04:30.452Z,28.12
2019-02-12T10:05:30.446Z,28.12
2019-02-12T10:06:30.440Z,28.12
2019-02-12T10:07:30.480Z,33.75
2019-02-12T10:08:30.493Z,33.75
2019-02-12T10:09:30.398Z,39.38
2019-02-12T10:10:30.389Z,45.00
2019-02-12T10:11:30.422Z,50.62
2019-02-12T10:12:30.402Z,50.62
2019-02-12T10:13:30.389Z,45.00
2019-02-12T10:14:30.352Z,45.00
2019-02-12T10:15:30.334Z,45.00
2019-02-12T10:16:30.345Z,45.00
2019-02-12T10:17:30.316Z,45.00
2019-02-12T10:18:30.341Z,45.00
2019-02-12T10:19:30.303Z,45.00
2019-02-12T10:20:30.295Z,45.00
2019-02-12T10:21:30.281Z,45.00
2019-02-12T10:22:30.255Z,45.00
2019-02-12T10:23:30.246Z,45.00
2019-02-12T10:24:30.285Z,45.00
2019-02-12T10:25:30.261Z,50.62
2019-02-12T10:26:30.214Z,50.62
2019-02-12T10:27:30.204Z,50.62
2019-02-12T10:28:30.223Z,56.25
2019-02-12T10:29:30.187Z,56.25
2019-02-12T10:30:30.201Z,56.25
2019-02-12T10:31:30.182Z,56.25
2019-02-12T10:32:30.151Z,56.25
2019-02-12T10:33:30.161Z,50.62
2019-02-12T10:34:30.136Z,50.62
2019-02-12T10:35:30.119Z,50.62
2019-02-12T10:36:30.100Z,50.62
2019-02-12T10:37:30.142Z,56.25
2019-02-12T10:38:30.077Z,56.25
2019-02-12T10:39:30.065Z,56.25
2019-02-12T10:40:30.091Z,56.25
2019-02-12T10:41:30.051Z,56.25
2019-02-12T10:42:30.077Z,56.25
2019-02-12T10:43:30.077Z,61.88
2019-02-12T10:44:30.004Z,61.88
2019-02-12T10:45:30.070Z,61.88
2019-02-12T10:46:30.020Z,61.88
2019-02-12T10:47:29.984Z,67.50
2019-02-12T10:48:29.992Z,67.50
2019-02-12T10:49:30.058Z,67.50
2019-02-12T10:50:29.986Z,61.88
2019-02-12T10:51:30.008Z,61.88
2019-02-12T10:52:29.924Z,61.88
2019-02-12T10:53:29.916Z,56.25
2019-02-12T10:54:29.965Z,56.25
2019-02-12T10:55:29.901Z,50.62
2019-02-12T10:56:29.873Z,50.62
2019-02-12T10:57:29.879Z,56.25
2019-02-12T10:58:29.850Z,50.62
2019-02-12T10:59:29.853Z,50.62
2019-02-12T11:00:29.841Z,50.62
2019-02-12T11:01:29.820Z,50.62
2019-02-12T11:02:29.834Z,50.62
2019-02-12T11:03:29.796Z,50.62
2019-02-12T11:04:29.792Z,50.62
2019-02-12T11:05:29.771Z,56.25
2019-02-12T11:06:29.763Z,56.25
2019-02-12T11:07:29.761Z,56.25
2019-02-12T11:08:29.742Z,56.25
2019-02-12T11:09:29.744Z,61.88
2019-02-12T11:10:29.729Z,61.88
2019-02-12T11:11:29.714Z,61.88
2019-02-12T11:12:29.721Z,61.88
2019-02-12T11:13:29.691Z,61.88
2019-02-12T11:14:29.684Z,61.88
2019-02-12T11:15:29.716Z,61.88
2019-02-12T11:16:29.652Z,61.88
2019-02-12T11:17:29.729Z,61.88
2019-02-12T11:18:29.707Z,61.88
2019-02-12T11:19:29.622Z,61.88
2019-02-12T11:20:29.604Z,56.25
2019-02-12T11:21:29.595Z,56.25
2019-02-12T11:22:29.586Z,56.25
2019-02-12T11:23:29.574Z,56.25
2019-02-12T11:24:35.431Z,56.25
2019-02-12T11:25:30.588Z,61.88
2019-02-12T11:26:29.535Z,61.88
2019-02-12T11:27:29.530Z,56.25
2019-02-12T11:28:29.547Z,56.25
2019-02-12T11:29:30.509Z,50.62
2019-02-12T11:30:29.499Z,45.00
2019-02-12T11:31:29.523Z,50.62
2019-02-12T11:32:29.495Z,50.62
2019-02-12T11:33:29.463Z,56.25
2019-02-12T11:34:29.448Z,56.25
2019-02-12T11:35:29.445Z,56.25
2019-02-12T11:36:29.449Z,61.88
2019-02-12T11:37:29.428Z,61.88
2019-02-12T11:38:29.464Z,61.88
2019-02-12T11:39:29.401Z,61.88
2019-02-12T11:40:29.393Z,61.88
2019-02-12T11:41:29.375Z,61.88
2019-02-12T11:42:29.365Z,61.88
2019-02-12T11:43:29.389Z,61.88
2019-02-12T11:44:29.339Z,56.25
2019-02-12T11:45:29.358Z,56.25
2019-02-12T11:46:29.337Z,56.25
2019-02-12T11:47:29.305Z,56.25
2019-02-12T11:48:29.323Z,56.25
2019-02-12T11:49:29.302Z,56.25
2019-02-12T11:50:29.274Z,56.25
2019-02-12T11:51:29.259Z,61.88
2019-02-12T11:52:29.256Z,61.88
2019-02-12T11:53:29.235Z,61.88
2019-02-12T11:54:29.244Z,61.88
2019-02-12T11:55:29.221Z,61.88
2019-02-12T11:56:29.210Z,61.88
2019-02-12T11:57:29.223Z,61.88
2019-02-12T11:58:29.181Z,61.88
2019-02-12T11:59:29.169Z,61.88
2019-02-12T12:00:29.183Z,61.88
2019-02-12T12:01:29.153Z,61.88
2019-02-12T12:02:29.134Z,61.88
2019-02-12T12:03:29.153Z,61.88
2019-02-12T12:04:29.130Z,56.25
2019-02-12T12:05:29.106Z,56.25
2019-02-12T12:06:29.120Z,56.25
2019-02-12T12:07:29.089Z,56.25
2019-02-12T12:08:29.077Z,50.62
2019-02-12T12:09:29.110Z,50.62
2019-02-12T12:10:29.057Z,50.62
2019-02-12T12:11:29.043Z,45.00
2019-02-12T12:12:29.028Z,45.00
2019-02-12T12:13:29.015Z,39.38
2019-02-12T12:14:29.008Z,39.38
2019-02-12T12:15:29.017Z,39.38
2019-02-12T12:16:29.004Z,33.75
2019-02-12T12:17:28.969Z,33.75
2019-02-12T12:18:28.963Z,33.75
2019-02-12T12:19:28.948Z,33.75
2019-02-12T12:20:29.182Z,33.75
2019-02-12T12:21:28.935Z,33.75
2019-02-12T12:22:28.912Z,33.75
2019-02-12T12:23:28.908Z,33.75
2019-02-12T12:24:28.937Z,33.75
2019-02-12T12:25:28.939Z,28.12
2019-02-12T12:26:28.889Z,28.12
2019-02-12T12:27:28.894Z,28.12
2019-02-12T12:28:28.847Z,28.12
2019-02-12T12:29:28.880Z,28.12
2019-02-12T12:30:28.835Z,28.12
2019-02-12T12:31:28.827Z,28.12
2019-02-12T12:32:28.800Z,28.12
2019-02-12T12:33:28.795Z,28.12
2019-02-12T12:34:28.782Z,28.12
2019-02-12T12:35:28.774Z,28.12
2019-02-12T12:36:28.783Z,28.12
2019-02-12T12:37:28.759Z,28.12
2019-02-12T12:38:28.762Z,33.75
2019-02-12T12:39:28.769Z,39.38
2019-02-12T12:40:28.755Z,39.38
2019-02-12T12:41:28.706Z,39.38
2019-02-12T12:42:28.700Z,45.00
2019-02-12T12:43:29.817Z,45.00
2019-02-12T12:44:28.670Z,45.00
2019-02-12T12:45:28.659Z,39.38
2019-02-12T12:46:28.674Z,39.38
2019-02-12T12:47:28.642Z,39.38
2019-02-12T12:48:28.650Z,33.75
2019-02-12T12:49:28.608Z,33.75
2019-02-12T12:50:28.600Z,39.38
2019-02-12T12:51:28.629Z,39.38
2019-02-12T12:52:28.582Z,39.38
2019-02-12T12:53:28.612Z,33.75
2019-02-12T12:54:28.557Z,45.00
2019-02-12T12:55:28.544Z,45.00
2019-02-12T12:56:28.578Z,45.00
2019-02-12T12:57:28.521Z,45.00
2019-02-12T12:58:28.512Z,39.38
2019-02-12T12:59:28.505Z,33.75
2019-02-12T13:00:28.506Z,39.38
2019-02-12T13:01:28.529Z,39.38
2019-02-12T13:02:28.472Z,39.38
2019-02-12T13:03:28.450Z,39.38
2019-02-12T13:04:28.458Z,39.38
2019-02-12T13:05:28.429Z,39.38
2019-02-12T13:06:28.436Z,39.38
2019-02-12T13:07:28.431Z,39.38